Barbados Meteorological Services
Auto gathered TAF list
Powered by Apparatus software
For Flight VEC321
Contact Number 1-(246)-535-0021/2/3/4/5/6
WEB: http://www.barbadosweather.org

**********************************************

2018/05/23 12:32
TAF TVSA 231100Z 2312/2412 09010KT 9999 SCT018


**********************************************
2018/05/24 18:23
TAF TTPP 241600Z 2418/2518 11013KT 9999 SCT022
BECMG 2500/2502 00000KT FEW016
BECMG 2512/2514 11013KT FEW022


**********************************************
2018/05/24 18:20
TAF TTCP 241600Z 2418/2518 11015KT 9999 FEW022
BECMG 2501/2503 00000KT FEW016
BECMG 2512/2514 11015KT FEW022


**********************************************
2018/05/24 18:33
TAF TNCM 241726Z 2418/2518 10012KT P6SM VCSH SCT020


**********************************************
2018/05/24 18:46
TAF TLPL 241700Z 2418/2518 09018KT 9999 SCT025


**********************************************
2018/05/24 18:45
TAF TAF TLPC 241700Z 2418/2518 10013KT 9999 SCT025


**********************************************
2018/05/24 18:33
TAF TJSJ 241726Z 2418/2518 07016KT P6SM VCSH SCT025 SCT050
FM250000 09010KT P6SM VCSH SCT030
FM251400 07017KT P6SM SCT030


**********************************************
2018/05/24 18:15
TAF TAF TGPY 241600Z 2418/2518 09012KT 9999 SCT019


**********************************************
2018/05/24 18:07
TAF TFFR 241600Z 2418/2518 12012KT 9999 SCT028 BKN045
TEMPO 2418/2420 3000 SHRA BKN020TCU
BECMG 2422/2424 VRB03KT
TEMPO 2503/2518 4000 SHRA SCT020TCU
BECMG 2512/2514 09010KT


**********************************************
2018/05/24 18:15
TAF TFFF 241600Z 2418/2518 10012KT 9999 SCT025 BKN040
TEMPO 2418/2421 4000 SHRA SCT018TCU
TEMPO 2503/2512 4000 SHRA SCT020TCU


**********************************************
2018/05/24 18:39
TAF TDPD 241700Z 2418/2518 12014KT 9999 BKN016 SCT036


**********************************************
2018/05/24 18:39
TAF TBPB 241700Z 2418/2518 10019KT 9999 SCT020= TAF TVSA 241700Z 2418/2518 08014KT 9999 SCT020


**********************************************
2018/05/24 18:05
TAF TAPA 241700Z 2418/2518 09011KT 9999 SCT020 PROB30
TEMPO 2506/2516 SHRA


**********************************************
2018/05/24 82:00
TAF SYCJ 241700Z 2482/2518 07010KT 6000 SHRA FEW014CB BKN016 BKN080
BECMG 2423/2501 05006KT 9999 SCT014 SCT040 BKN090
BECMG 2505/2507 VRB02KT
TEMPO 2506/2610 5000 SHRA-RA BKN012 OVC038


**********************************************
2018/05/24 18:06
TAF SVMI 241600Z 2418/2518 09011KT 9999 SCT016 TX31/18Z TN23/08Z
BECMG 2418/2422 09010KT FEW016 SCT100


**********************************************
2018/05/24 18:07
TAF SOCA 241600Z 2418/2518 09010KT 9999 SCT028 BKN040
TEMPO 2420/2518 3000 SHRA SCT012TCU PROB40
TEMPO 2511/2515 1000 TSRA FEW010CB


**********************************************
2018/05/24 12:39
TAF TAF SMJP 241000Z 2412/2512 07008KT 9999 SCT020 TX29/2418Z TN23/2510Z
TEMPO 2414/2418 VRB12G22KT 5000 SHRA FEW015TCU BKN018
FM241800 06008KT 9999 FEW018CB SCT020
TEMPO 2418/2422 VRB12G22KT 2000 +SHRA SCT015CB BKN018 PROB30 TS
FM242300 05005KT 9999 FEW010 SCT020
TEMPO 2506/2510 VRB12G22KT 2000 +SHRA FEW015CB SCT018


**********************************************
2018/05/24 18:58
TAF MYNN 241645Z 2418/2518 16007KT 9999 VCSH FEW016CB BKN040 BKN040
FM250000 10008KT 9999 VCSH SCT018 SCT050 BKN240


**********************************************
2018/05/24 18:15
TAF MKJP 241715Z 2418/2518 14022KT 9999 FEW022
BECMG 2502/2504 14012KT
BECMG 2514/2516 14025KT


**********************************************